Time;durP1;ratioP1;P1;durP2;ratioP2;P2;SDS_P1;SDS_P2;PMS_P1;PMS_P2;Temp;Humidity;BMP_temperature;BMP_pressure;BME280_temperature;BME280_humidity;BME280_pressure;Samples;Min_cycle;Max_cycle;Signal;HPM_P1;HPM_P2
2022/09/12 00:01:24;;;;;;;;;;;;;;;14.51;89.82;101740.13;5114035;28;20006;-35
2022/09/12 00:03:57;;;;;;;;;;;;;;;14.50;89.60;101737.66;5113362;28;19931;-35
2022/09/12 00:06:24;;;;;;;;;;;;;;;14.49;90.09;101739.53;5113785;28;19961;-35
2022/09/12 00:08:59;;;;;;;;;;;;;;;14.46;90.29;101720.94;5113946;28;19935;-35
2022/09/12 00:11:25;;;;;;;;;;;;;;;14.45;90.45;101732.06;5113716;28;19911;-35
2022/09/12 00:13:54;;;;;;;;;;;;;;;14.42;90.23;101727.91;5113395;28;19919;-35
2022/09/12 00:16:20;;;;;;;;;;;;;;;14.40;90.76;101719.16;5113618;28;19912;-35
2022/09/12 00:18:45;;;;;;;;;;;;;;;14.36;90.85;101723.41;5113433;28;19915;-35
2022/09/12 00:21:10;;;;;;;;;;;;;;;14.35;90.62;101721.75;5113338;28;19912;-35
2022/09/12 00:23:36;;;;;;;;;;;;;;;14.34;91.22;101720.09;5114326;28;20320;-35
2022/09/12 00:26:03;;;;;;;;;;;;;;;14.31;90.90;101715.13;5113886;28;19912;-35
2022/09/12 00:28:28;;;;;;;;;;;;;;;14.28;90.94;101716.41;5113535;28;19918;-35
2022/09/12 00:30:53;;;;;;;;;;;;;;;14.27;91.19;101720.19;5113765;28;19911;-34
2022/09/12 00:33:19;;;;;;;;;;;;;;;14.25;91.11;101711.47;5113511;28;20351;-35
2022/09/12 00:35:47;;;;;;;;;;;;;;;14.24;91.09;101717.09;5114194;28;19911;-35
2022/09/12 00:38:13;;;;;;;;;;;;;;;14.24;91.00;101715.22;5113945;28;20430;-35
2022/09/12 00:40:39;;;;;;;;;;;;;;;14.23;91.00;101712.75;5113339;28;19912;-35
2022/09/12 00:43:05;;;;;;;;;;;;;;;14.23;90.99;101704.56;5113549;28;20362;-35
2022/09/12 00:45:30;;;;;;;;;;;;;;;14.22;90.90;101703.75;5113095;28;19911;-35
2022/09/12 00:47:57;;;;;;;;;;;;;;;14.22;90.97;101701.03;5114178;28;19955;-35
2022/09/12 00:50:23;;;;;;;;;;;;;;;14.22;91.05;101701.03;5113750;28;19922;-35
2022/09/12 00:52:51;;;;;;;;;;;;;;;14.23;91.04;101699.13;5113787;28;19911;-35
2022/09/12 00:55:19;;;;;;;;;;;;;;;14.22;91.12;101700.22;5113345;28;19918;-35
2022/09/12 00:57:56;;;;;;;;;;;;;;;14.17;90.99;101693.56;5113765;28;20002;-35
2022/09/12 01:00:23;;;;;;;;;;;;;;;14.13;91.09;101689.66;5113347;28;19911;-35
2022/09/12 01:02:50;;;;;;;;;;;;;;;14.10;91.02;101683.84;5113853;28;19911;-34
2022/09/12 01:05:16;;;;;;;;;;;;;;;14.07;91.01;101685.16;5113988;28;20266;-35
2022/09/12 01:07:41;;;;;;;;;;;;;;;14.06;90.64;101685.41;5113349;28;19912;-35
2022/09/12 01:10:08;;;;;;;;;;;;;;;14.01;90.97;101682.56;5113237;28;19918;-35
2022/09/12 01:12:36;;;;;;;;;;;;;;;14.00;91.22;101681.69;5113878;28;20067;-35
2022/09/12 01:15:01;;;;;;;;;;;;;;;13.99;91.15;101680.06;5114136;28;19912;-35
2022/09/12 01:17:30;;;;;;;;;;;;;;;13.98;90.94;101681.13;5116939;28;20363;-35
2022/09/12 01:20:14;;;;;;;;;;;;;;;13.97;90.97;101684.09;5117275;28;19957;-35
2022/09/12 01:22:39;;;;;;;;;;;;;;;13.90;91.17;101676.84;5116713;28;19911;-35
2022/09/12 01:25:04;;;;;;;;;;;;;;;13.89;91.49;101674.34;5117402;28;19918;-35
2022/09/12 01:27:39;;;;;;;;;;;;;;;13.89;91.08;101674.34;5116562;28;19912;-35
2022/09/12 01:30:21;;;;;;;;;;;;;;;13.85;91.44;101678.59;5117165;28;19941;-35
2022/09/12 01:33:05;;;;;;;;;;;;;;;13.82;91.51;101668.22;5116971;28;19912;-35
2022/09/12 01:35:49;;;;;;;;;;;;;;;13.80;91.26;101662.16;5116433;28;19941;-35
2022/09/12 01:38:17;;;;;;;;;;;;;;;13.78;91.52;101662.41;5116679;28;20336;-36
2022/09/12 01:40:54;;;;;;;;;;;;;;;13.78;91.47;101656.97;5116349;28;20408;-35
2022/09/12 01:43:25;;;;;;;;;;;;;;;13.75;91.59;101653.88;5116021;28;20432;-33
2022/09/12 01:45:50;;;;;;;;;;;;;;;13.73;91.81;101651.41;5116090;28;20011;-33
2022/09/12 01:48:22;;;;;;;;;;;;;;;13.73;92.29;101647.84;5117085;28;19946;-34
2022/09/12 01:50:53;;;;;;;;;;;;;;;13.72;92.20;101654.34;5116293;28;19933;-35
2022/09/12 01:53:22;;;;;;;;;;;;;;;13.70;92.82;101649.13;5116163;28;20264;-35
2022/09/12 01:55:50;;;;;;;;;;;;;;;13.67;92.58;101651.50;5116021;28;19912;-35
2022/09/12 01:58:25;;;;;;;;;;;;;;;13.67;92.34;101649.63;5116258;27;19912;-35
2022/09/12 02:00:58;;;;;;;;;;;;;;;13.63;92.50;101643.81;5116345;28;19911;-35
2022/09/12 02:03:28;;;;;;;;;;;;;;;13.61;92.58;101639.66;5116619;28;20018;-35
2022/09/12 02:06:00;;;;;;;;;;;;;;;13.60;92.31;101635.28;5115596;28;19919;-35
2022/09/12 02:08:34;;;;;;;;;;;;;;;13.60;92.63;101646.16;5116021;28;19937;-35
2022/09/12 02:11:02;;;;;;;;;;;;;;;13.56;92.55;101636.78;5115799;28;19922;-35
2022/09/12 02:13:46;;;;;;;;;;;;;;;13.54;92.39;101628.06;5115701;28;20002;-35
2022/09/12 02:16:23;;;;;;;;;;;;;;;13.53;92.50;101626.41;5115384;28;19911;-35
2022/09/12 02:18:53;;;;;;;;;;;;;;;13.54;92.56;101626.16;5116221;28;19912;-35
2022/09/12 02:21:20;;;;;;;;;;;;;;;13.52;92.23;101622.88;5115906;28;19911;-35
2022/09/12 02:23:49;;;;;;;;;;;;;;;13.51;92.33;101623.06;5115558;28;19947;-35
2022/09/12 02:26:24;;;;;;;;;;;;;;;13.50;92.29;101622.25;5114927;28;19965;-35
2022/09/12 02:28:49;;;;;;;;;;;;;;;13.49;92.54;101623.31;5116249;28;19933;-35
2022/09/12 02:31:15;;;;;;;;;;;;;;;13.48;92.36;101627.09;5115896;28;20244;-35
2022/09/12 02:33:49;;;;;;;;;;;;;;;13.46;92.48;101626.50;5115544;28;19927;-35
2022/09/12 02:36:22;;;;;;;;;;;;;;;13.44;92.23;101628.63;5114971;28;19912;-35
2022/09/12 02:38:48;;;;;;;;;;;;;;;13.43;92.42;101632.41;5115647;28;20481;-35
2022/09/12 02:41:16;;;;;;;;;;;;;;;13.42;92.58;101633.47;5115614;28;20018;-35
2022/09/12 02:43:41;;;;;;;;;;;;;;;13.42;92.69;101624.47;5115193;28;19933;-35
2022/09/12 02:46:10;;;;;;;;;;;;;;;13.40;92.26;101630.97;5115071;27;20010;-35
2022/09/12 02:48:38;;;;;;;;;;;;;;;13.39;92.65;101628.47;5115377;28;19912;-35
2022/09/12 02:51:04;;;;;;;;;;;;;;;13.36;92.77;101627.03;5115004;28;20343;-35
2022/09/12 02:53:29;;;;;;;;;;;;;;;13.35;92.58;101619.13;5114850;28;20019;-34
2022/09/12 02:55:55;;;;;;;;;;;;;;;13.33;92.45;101615.81;5115171;28;20335;-34
2022/09/12 02:58:23;;;;;;;;;;;;;;;13.31;92.43;101618.75;5115333;28;19911;-35
2022/09/12 03:00:55;;;;;;;;;;;;;;;13.29;92.67;101615.44;5114781;28;20003;-34
2022/09/12 03:03:28;;;;;;;;;;;;;;;13.28;92.56;101610.25;5114817;28;19918;-34
2022/09/12 03:05:58;;;;;;;;;;;;;;;13.26;92.75;101607.75;5114384;28;20343;-34
2022/09/12 03:08:23;;;;;;;;;;;;;;;13.26;93.05;101604.22;5114801;28;19920;-34
2022/09/12 03:10:51;;;;;;;;;;;;;;;13.26;93.14;101598.78;5114728;28;19918;-35
2022/09/12 03:13:40;;;;;;;;;;;;;;;13.25;93.17;101602.56;5114278;28;20013;-35
2022/09/12 03:16:14;;;;;;;;;;;;;;;13.26;92.93;101598.78;5031749;28;19968;-35
2022/09/12 03:18:45;;;;;;;;;;;;;;;13.26;93.29;101604.22;5031840;28;19913;-35
2022/09/12 03:21:30;;;;;;;;;;;;;;;13.26;93.15;101604.22;5031717;28;19962;-36
2022/09/12 03:24:12;;;;;;;;;;;;;;;13.24;93.13;101603.63;5015582;28;19913;-35
2022/09/12 03:26:41;;;;;;;;;;;;;;;13.24;93.09;101606.34;5031429;28;19929;-35
2022/09/12 03:29:07;;;;;;;;;;;;;;;13.24;93.16;101592.75;5032112;28;19917;-35
2022/09/12 03:31:32;;;;;;;;;;;;;;;13.21;93.36;101590.47;5031281;28;19917;-34
2022/09/12 03:34:00;;;;;;;;;;;;;;;13.18;93.49;101593.66;5031779;28;19920;-35
2022/09/12 03:36:27;;;;;;;;;;;;;;;13.17;93.66;101590.09;5031286;28;19920;-35
2022/09/12 03:38:52;;;;;;;;;;;;;;;13.20;93.64;101586.09;5030782;28;20388;-34
2022/09/12 03:41:17;;;;;;;;;;;;;;;13.21;93.70;101590.47;5031453;28;19913;-35
2022/09/12 03:43:43;;;;;;;;;;;;;;;13.20;93.70;101586.91;5031830;28;19913;-35
2022/09/12 03:46:09;;;;;;;;;;;;;;;13.19;93.79;101592.59;5031373;28;20269;-35
2022/09/12 03:48:34;;;;;;;;;;;;;;;13.19;93.79;101593.41;5031434;28;19913;-35
2022/09/12 03:51:00;;;;;;;;;;;;;;;13.19;93.59;101592.59;5031359;28;20022;-35
2022/09/12 03:53:25;;;;;;;;;;;;;;;13.20;93.88;101602.38;5085359;28;19919;-35
2022/09/12 03:55:50;;;;;;;;;;;;;;;13.19;93.75;101595.31;5113854;28;19911;-34
2022/09/12 03:58:15;;;;;;;;;;;;;;;13.20;93.83;101588.81;5114465;28;19911;-35
2022/09/12 04:00:43;;;;;;;;;;;;;;;13.20;93.71;101584.22;5114068;28;20385;-35
2022/09/12 04:03:08;;;;;;;;;;;;;;;13.20;93.80;101586.09;5114092;28;19925;-34
2022/09/12 04:05:34;;;;;;;;;;;;;;;13.18;93.77;101585.50;5113748;28;19919;-34
2022/09/12 04:07:59;;;;;;;;;;;;;;;13.17;93.66;101581.13;5112944;28;19915;-34
2022/09/12 04:10:24;;;;;;;;;;;;;;;13.17;93.97;101581.13;5114006;28;19915;-34
2022/09/12 04:12:49;;;;;;;;;;;;;;;13.17;94.11;101579.22;5113385;28;19915;-34
2022/09/12 04:15:15;;;;;;;;;;;;;;;13.17;94.01;101578.41;5113743;28;19957;-35
2022/09/12 04:17:40;;;;;;;;;;;;;;;13.14;94.05;101572.38;5114244;28;20001;-34
2022/09/12 04:20:06;;;;;;;;;;;;;;;13.14;94.02;101569.66;5113394;28;19923;-34
2022/09/12 04:22:32;;;;;;;;;;;;;;;13.14;93.91;101575.09;5113350;28;19916;-34
2022/09/12 04:24:57;;;;;;;;;;;;;;;13.14;94.16;101574.28;5113590;28;20393;-34
2022/09/12 04:27:22;;;;;;;;;;;;;;;13.13;94.26;101570.72;5113684;28;19957;-34
2022/09/12 04:29:47;;;;;;;;;;;;;;;13.14;93.97;101563.41;5113599;28;19912;-34
2022/09/12 04:32:13;;;;;;;;;;;;;;;13.13;93.99;101561.75;5113877;28;20383;-34
2022/09/12 04:34:39;;;;;;;;;;;;;;;13.13;94.22;101559.03;5113971;28;19977;-34
2022/09/12 04:37:04;;;;;;;;;;;;;;;13.12;94.24;101565.50;5113778;28;19911;-34
2022/09/12 04:39:29;;;;;;;;;;;;;;;13.11;94.41;101556.53;5113416;28;19918;-34
2022/09/12 04:41:54;;;;;;;;;;;;;;;13.11;94.46;101564.69;5113993;28;19912;-33
2022/09/12 04:44:19;;;;;;;;;;;;;;;13.10;94.55;101551.34;5113403;28;19911;-34
2022/09/12 04:46:45;;;;;;;;;;;;;;;13.12;94.44;101551.94;5113658;28;20405;-34
2022/09/12 04:49:11;;;;;;;;;;;;;;;13.14;94.57;101558.81;5115518;28;19947;-34
2022/09/12 04:51:37;;;;;;;;;;;;;;;13.13;94.82;101549.00;5117836;28;19911;-34
2022/09/12 04:54:04;;;;;;;;;;;;;;;13.12;94.95;101550.03;5117304;28;20014;-34
2022/09/12 04:56:30;;;;;;;;;;;;;;;13.13;94.90;101549.00;5117500;28;19912;-35
2022/09/12 04:58:56;;;;;;;;;;;;;;;13.13;95.17;101556.34;5117197;28;19971;-34
2022/09/12 05:01:22;;;;;;;;;;;;;;;13.15;94.87;101552.31;5117250;28;19919;-34
2022/09/12 05:03:47;;;;;;;;;;;;;;;13.15;94.77;101554.19;5117386;28;19911;-35
2022/09/12 05:06:14;;;;;;;;;;;;;;;13.17;94.93;101551.25;5116820;28;20408;-35
2022/09/12 05:08:40;;;;;;;;;;;;;;;13.18;94.97;101558.34;5117213;28;19955;-35
2022/09/12 05:11:15;;;;;;;;;;;;;;;13.21;94.94;101557.88;5116689;28;20367;-35
2022/09/12 05:13:41;;;;;;;;;;;;;;;13.21;95.38;101557.88;5116952;28;19945;-35
2022/09/12 05:16:07;;;;;;;;;;;;;;;13.23;94.99;101559.34;5116586;28;19911;-35
2022/09/12 05:18:33;;;;;;;;;;;;;;;13.23;94.98;101564.78;5117498;28;19961;-35
2022/09/12 05:20:59;;;;;;;;;;;;;;;13.26;94.97;101567.00;5116798;28;19912;-35
2022/09/12 05:23:24;;;;;;;;;;;;;;;13.28;95.26;101558.66;5116795;28;20350;-35
2022/09/12 05:25:51;;;;;;;;;;;;;;;13.29;95.06;101563.84;5116369;28;19911;-35
2022/09/12 05:28:16;;;;;;;;;;;;;;;13.30;95.09;101561.94;5116599;28;20359;-35
2022/09/12 05:30:42;;;;;;;;;;;;;;;13.30;95.14;101561.94;5116610;28;19915;-34
2022/09/12 05:33:07;;;;;;;;;;;;;;;13.29;95.12;101554.88;5116625;28;19912;-35
2022/09/12 05:35:32;;;;;;;;;;;;;;;13.32;95.14;101562.53;5116848;28;19919;-35
2022/09/12 05:37:57;;;;;;;;;;;;;;;13.32;95.06;101551.66;5117062;28;19912;-35
2022/09/12 05:40:22;;;;;;;;;;;;;;;13.33;95.26;101559.63;5115053;28;19957;-35
2022/09/12 05:42:48;;;;;;;;;;;;;;;13.34;95.39;101568.59;5116118;28;19995;-35
2022/09/12 05:45:13;;;;;;;;;;;;;;;13.34;95.23;101563.16;5116362;28;19916;-35
2022/09/12 05:47:38;;;;;;;;;;;;;;;13.36;95.30;101566.44;5116367;28;19965;-35
2022/09/12 05:50:09;;;;;;;;;;;;;;;13.35;95.39;101565.63;5116511;28;19920;-35
2022/09/12 05:52:34;;;;;;;;;;;;;;;13.37;95.39;101568.09;5115850;28;19911;-35
2022/09/12 05:55:00;;;;;;;;;;;;;;;13.39;95.23;101563.28;5116119;28;19961;-35
2022/09/12 05:57:25;;;;;;;;;;;;;;;13.42;95.27;101564.69;5116614;28;19993;-35
2022/09/12 05:59:50;;;;;;;;;;;;;;;13.43;95.68;101567.19;5115555;28;20372;-35
2022/09/12 06:02:15;;;;;;;;;;;;;;;13.45;95.49;101577.81;5115826;28;20006;-35
2022/09/12 06:04:40;;;;;;;;;;;;;;;13.47;95.50;101581.97;5116329;28;19971;-35
2022/09/12 06:07:06;;;;;;;;;;;;;;;13.48;95.38;101580.91;5116204;28;20002;-35
2022/09/12 06:09:31;;;;;;;;;;;;;;;13.49;95.64;101579.84;5116836;28;20500;-35
2022/09/12 06:11:56;;;;;;;;;;;;;;;13.49;95.16;101577.13;5116460;27;19912;-35
2022/09/12 06:14:22;;;;;;;;;;;;;;;13.51;95.49;101585.03;5115563;28;19916;-35
2022/09/12 06:16:48;;;;;;;;;;;;;;;13.52;95.61;101573.13;5116334;28;20263;-35
2022/09/12 06:19:18;;;;;;;;;;;;;;;13.51;95.81;101574.16;5115774;28;19915;-35
2022/09/12 06:21:43;;;;;;;;;;;;;;;13.51;95.78;101580.44;5116138;28;20362;-35
2022/09/12 06:24:09;;;;;;;;;;;;;;;13.51;95.73;101576.88;5116520;28;19918;-35
2022/09/12 06:26:34;;;;;;;;;;;;;;;13.52;95.55;101570.41;5115990;28;19956;-35
2022/09/12 06:28:59;;;;;;;;;;;;;;;13.51;95.88;101566.84;5115950;28;19912;-35
2022/09/12 06:31:26;;;;;;;;;;;;;;;13.52;95.77;101570.41;5116161;28;20300;-35
2022/09/12 06:33:52;;;;;;;;;;;;;;;13.51;95.86;101574.16;5115423;28;20005;-35
2022/09/12 06:36:20;;;;;;;;;;;;;;;13.51;95.81;101572.28;5115353;28;19912;-35
2022/09/12 06:38:46;;;;;;;;;;;;;;;13.48;95.98;101571.94;5115523;28;19919;-35
2022/09/12 06:41:12;;;;;;;;;;;;;;;13.42;96.48;101565.53;5115576;28;19951;-35
2022/09/12 06:43:38;;;;;;;;;;;;;;;13.44;96.15;101565.31;5115414;28;19976;-35
2022/09/12 06:46:03;;;;;;;;;;;;;;;13.43;96.33;101572.63;5115246;28;20012;-35
2022/09/12 06:48:28;;;;;;;;;;;;;;;13.47;96.51;101570.25;5116105;28;19965;-35
2022/09/12 06:50:58;;;;;;;;;;;;;;;13.52;96.38;101571.25;5115153;28;19911;-34
2022/09/12 06:53:24;;;;;;;;;;;;;;;13.59;96.51;101574.66;5115104;28;19911;-35
2022/09/12 06:55:56;;;;;;;;;;;;;;;13.69;96.45;101567.84;5115381;28;19912;-35
2022/09/12 06:58:22;;;;;;;;;;;;;;;13.75;97.28;101570.44;5114639;28;20447;-35
2022/09/12 07:00:47;;;;;;;;;;;;;;;13.83;96.99;101572.00;5115466;28;19912;-35
2022/09/12 07:03:12;;;;;;;;;;;;;;;13.90;97.94;101568.06;5115025;28;19911;-34
2022/09/12 07:05:37;;;;;;;;;;;;;;;13.96;97.72;101574.50;5114598;28;19911;-35
2022/09/12 07:08:03;;;;;;;;;;;;;;;13.98;98.28;101569.63;5114712;28;19980;-35
2022/09/12 07:10:29;;;;;;;;;;;;;;;14.04;97.48;101560.53;5115147;28;19958;-35
2022/09/12 07:12:55;;;;;;;;;;;;;;;14.09;98.26;101560.63;5114365;28;19951;-35
2022/09/12 07:15:20;;;;;;;;;;;;;;;14.14;97.56;101566.19;5114837;28;20367;-35
2022/09/12 07:17:45;;;;;;;;;;;;;;;14.20;98.71;101560.88;5115412;28;19918;-35
2022/09/12 07:20:10;;;;;;;;;;;;;;;14.22;98.51;101556.03;5114912;28;19994;-35
2022/09/12 07:22:36;;;;;;;;;;;;;;;14.25;99.08;101553.69;5115286;28;19956;-35
2022/09/12 07:25:01;;;;;;;;;;;;;;;14.29;99.33;101556.72;5114828;28;19994;-34
2022/09/12 07:27:27;;;;;;;;;;;;;;;14.33;98.34;101549.75;5114887;28;19911;-35
2022/09/12 07:29:52;;;;;;;;;;;;;;;14.41;98.72;101552.09;5114451;28;20283;-35
2022/09/12 07:32:17;;;;;;;;;;;;;;;14.48;98.26;101549.28;5114701;28;19911;-35
2022/09/12 07:34:44;;;;;;;;;;;;;;;14.55;98.49;101556.25;5114552;28;19919;-35
2022/09/12 07:37:09;;;;;;;;;;;;;;;14.64;98.21;101551.25;5114401;28;19912;-35
2022/09/12 07:39:34;;;;;;;;;;;;;;;14.68;98.63;101558.69;5113309;28;20007;-35
2022/09/12 07:41:59;;;;;;;;;;;;;;;14.76;98.90;101559.41;5115105;28;19912;-34
2022/09/12 07:44:25;;;;;;;;;;;;;;;14.84;98.54;101567.19;5113948;28;20316;-34
2022/09/12 07:46:51;;;;;;;;;;;;;;;14.92;99.83;101561.34;5114366;28;19912;-35
2022/09/12 07:49:16;;;;;;;;;;;;;;;14.99;99.37;101563.94;5113792;28;19916;-34
2022/09/12 07:51:42;;;;;;;;;;;;;;;15.08;99.62;101557.88;5114603;28;19973;-35
2022/09/12 07:54:08;;;;;;;;;;;;;;;15.17;99.10;101570.00;5114494;28;19911;-35
2022/09/12 07:56:33;;;;;;;;;;;;;;;15.28;98.63;101560.13;5113798;28;20321;-35
2022/09/12 07:58:59;;;;;;;;;;;;;;;15.40;98.60;101562.78;5113856;28;19915;-35
2022/09/12 08:01:24;;;;;;;;;;;;;;;15.51;99.34;101564.59;5112998;28;19912;-35
2022/09/12 08:03:52;;;;;;;;;;;;;;;15.60;100.00;101557.69;5113651;28;20371;-35
2022/09/12 08:06:24;;;;;;;;;;;;;;;15.68;100.00;101556.50;5114501;28;19922;-35
2022/09/12 08:08:50;;;;;;;;;;;;;;;15.77;99.73;101555.00;5114322;28;20336;-35
2022/09/12 08:11:16;;;;;;;;;;;;;;;15.87;99.57;101565.25;5113902;28;19948;-35
2022/09/12 08:13:42;;;;;;;;;;;;;;;15.98;99.43;101556.13;5113995;28;19918;-35
2022/09/12 08:16:10;;;;;;;;;;;;;;;16.06;99.14;101563.91;5114412;28;19911;-35
2022/09/12 08:18:36;;;;;;;;;;;;;;;16.14;98.62;101560.75;5114423;28;20224;-35
2022/09/12 08:21:03;;;;;;;;;;;;;;;16.21;98.19;101566.03;5113532;28;19922;-35
2022/09/12 08:23:28;;;;;;;;;;;;;;;16.29;98.01;101565.59;5114255;28;19912;-35
2022/09/12 08:25:58;;;;;;;;;;;;;;;16.40;97.91;101564.66;5118017;28;20014;-35
2022/09/12 08:28:24;;;;;;;;;;;;;;;16.55;97.67;101561.31;5118024;28;19912;-35
2022/09/12 08:30:49;;;;;;;;;;;;;;;16.65;97.67;101572.38;5116140;28;19963;-35
2022/09/12 08:33:14;;;;;;;;;;;;;;;16.73;97.46;101566.47;5117356;28;20061;-35
2022/09/12 08:35:39;;;;;;;;;;;;;;;16.80;96.33;101573.66;5118584;28;19912;-35
2022/09/12 08:38:05;;;;;;;;;;;;;;;16.86;96.55;101564.44;5117977;28;20361;-35
2022/09/12 08:40:32;;;;;;;;;;;;;;;16.97;96.65;101574.41;5112246;28;19938;-36
2022/09/12 08:43:05;;;;;;;;;;;;;;;17.10;96.45;101574.00;5097183;28;20003;-35
2022/09/12 08:45:41;;;;;;;;;;;;;;;17.25;96.28;101567.88;5096997;28;19919;-35
2022/09/12 08:48:08;;;;;;;;;;;;;;;17.38;95.45;101569.38;5097798;28;20317;-35
2022/09/12 08:50:33;;;;;;;;;;;;;;;17.50;95.31;101562.66;5103135;28;19916;-35
2022/09/12 08:53:24;;;;;;;;;;;;;;;17.60;95.21;101561.09;5117633;28;19988;-35
2022/09/12 08:55:57;;;;;;;;;;;;;;;17.72;94.44;101565.31;5112760;28;20390;-35
2022/09/12 08:58:23;;;;;;;;;;;;;;;17.85;93.80;101560.50;5117382;28;19915;-35
2022/09/12 09:00:55;;;;;;;;;;;;;;;17.96;93.80;101564.97;5111156;28;19923;-35
2022/09/12 09:03:29;;;;;;;;;;;;;;;18.04;92.71;101561.72;5099821;28;19916;-33
2022/09/12 09:06:01;;;;;;;;;;;;;;;18.15;92.89;101562.63;5097397;28;20363;-35
2022/09/12 09:08:40;;;;;;;;;;;;;;;18.24;92.57;101567.31;5096840;28;19916;-35
2022/09/12 09:11:15;;;;;;;;;;;;;;;18.32;92.19;101557.81;5097326;28;19930;-35
2022/09/12 09:16:51;;;;;;;;;;;;;;;18.53;91.64;101545.84;5097095;28;20019;-36
2022/09/12 09:19:23;;;;;;;;;;;;;;;18.65;90.49;101545.66;5096827;28;20334;-36
2022/09/12 09:21:51;;;;;;;;;;;;;;;18.76;91.21;101536.38;5096564;28;19912;-36
2022/09/12 09:24:20;;;;;;;;;;;;;;;18.87;90.96;101533.69;5096818;28;19935;-35
2022/09/12 09:26:56;;;;;;;;;;;;;;;19.01;89.97;101548.53;5097370;28;19964;-35
2022/09/12 09:29:28;;;;;;;;;;;;;;;19.14;87.59;101542.53;5096985;28;19912;-34
2022/09/12 09:31:56;;;;;;;;;;;;;;;19.23;89.34;101543.66;5096205;28;20295;-34
2022/09/12 09:34:23;;;;;;;;;;;;;;;19.36;88.51;101534.03;5096011;28;19912;-34
2022/09/12 09:36:50;;;;;;;;;;;;;;;19.46;87.05;101530.47;5095868;28;19916;-34
2022/09/12 09:39:35;;;;;;;;;;;;;;;19.55;87.68;101531.59;5095813;28;20360;-34
2022/09/12 09:42:10;;;;;;;;;;;;;;;19.72;87.14;101534.09;5096006;28;19919;-34
2022/09/12 09:44:35;;;;;;;;;;;;;;;19.85;87.25;101529.94;5096850;28;19952;-34
2022/09/12 09:47:01;;;;;;;;;;;;;;;19.95;85.35;101518.94;5096153;28;19962;-34
2022/09/12 09:49:28;;;;;;;;;;;;;;;20.05;85.51;101527.16;5095944;28;19912;-35
2022/09/12 09:51:53;;;;;;;;;;;;;;;20.14;84.95;101517.25;5096830;28;19919;-35
2022/09/12 09:54:37;;;;;;;;;;;;;;;20.24;84.54;101510.91;5095984;28;19912;-35
2022/09/12 09:57:04;;;;;;;;;;;;;;;20.33;82.75;101509.25;5095942;28;19912;-35
2022/09/12 09:59:31;;;;;;;;;;;;;;;20.39;82.98;101499.88;5096000;28;19954;-35
2022/09/12 10:02:02;;;;;;;;;;;;;;;20.44;78.34;101501.78;5095871;28;19992;-35
2022/09/12 10:04:30;;;;;;;;;;;;;;;20.52;79.78;101501.22;5095355;28;20379;-35
2022/09/12 10:06:57;;;;;;;;;;;;;;;20.63;80.45;101499.25;5096225;28;19912;-35
2022/09/12 10:09:27;;;;;;;;;;;;;;;20.72;81.26;101490.13;5095937;28;19973;-35
2022/09/12 10:11:52;;;;;;;;;;;;;;;20.81;80.36;101487.63;5096054;28;20071;-36
2022/09/12 10:14:30;;;;;;;;;;;;;;;20.88;77.34;101485.34;5095497;28;20002;-35
2022/09/12 10:16:57;;;;;;;;;;;;;;;20.92;76.23;101488.38;5096357;28;19965;-35
2022/09/12 10:19:31;;;;;;;;;;;;;;;20.96;76.62;101478.44;5095065;28;20466;-35
2022/09/12 10:21:57;;;;;;;;;;;;;;;21.03;77.60;101477.03;5095793;28;19954;-35
2022/09/12 10:24:34;;;;;;;;;;;;;;;21.12;78.68;101481.91;5095897;28;19965;-35
2022/09/12 10:27:08;;;;;;;;;;;;;;;21.20;78.53;101476.63;5095414;28;19911;-35
2022/09/12 10:29:39;;;;;;;;;;;;;;;21.30;76.60;101471.06;5094748;28;19923;-35
2022/09/12 10:32:08;;;;;;;;;;;;;;;21.42;73.88;101464.34;5092853;28;20333;-35
2022/09/12 10:34:35;;;;;;;;;;;;;;;21.47;72.43;101464.31;5094664;28;19965;-35
2022/09/12 10:37:05;;;;;;;;;;;;;;;21.53;76.67;101463.19;5094681;28;20383;-35
2022/09/12 10:39:31;;;;;;;;;;;;;;;21.64;75.67;101461.97;5095674;28;19911;-35
2022/09/12 10:41:56;;;;;;;;;;;;;;;21.77;73.65;101460.47;5095364;28;20094;-35
2022/09/12 10:44:29;;;;;;;;;;;;;;;21.83;73.34;101451.03;5094807;28;20371;-44
2022/09/12 10:46:55;;;;;;;;;;;;;;;21.96;74.17;101442.09;5094943;28;19919;-35
2022/09/12 10:49:23;;;;;;;;;;;;;;;22.07;72.56;101440.84;5094661;28;19912;-35
2022/09/12 10:51:48;;;;;;;;;;;;;;;22.17;72.12;101437.19;5094510;28;19912;-35
2022/09/12 10:54:15;;;;;;;;;;;;;;;22.21;70.89;101434.66;5094748;28;19919;-35
2022/09/12 10:57:07;;;;;;;;;;;;;;;22.28;71.44;101435.09;5094837;28;20280;-35
2022/09/12 10:59:55;;;;;;;;;;;;;;;22.29;67.55;101428.47;5012742;28;20021;-35
2022/09/12 11:02:20;;;;;;;;;;;;;;;22.35;68.94;101430.88;5012123;28;19948;-35
2022/09/12 11:05:01;;;;;;;;;;;;;;;22.44;67.68;101421.94;5012412;28;20100;-35
2022/09/12 11:07:26;;;;;;;;;;;;;;;22.52;68.09;101421.28;5012904;28;19920;-35
2022/09/12 11:09:54;;;;;;;;;;;;;;;22.53;64.45;101422.91;5013561;28;20300;-35
2022/09/12 11:12:28;;;;;;;;;;;;;;;22.63;64.97;101420.00;5031717;28;19912;-34
2022/09/12 11:15:12;;;;;;;;;;;;;;;22.71;67.45;101416.59;5031593;28;19932;-34
2022/09/12 11:17:58;;;;;;;;;;;;;;;22.78;66.48;101417.03;5032233;28;19955;-34
2022/09/12 11:20:32;;;;;;;;;;;;;;;22.87;63.24;101414.41;4976082;28;20337;-34
2022/09/12 11:23:15;;;;;;;;;;;;;;;22.96;61.92;101406.31;4992955;28;20012;-34
2022/09/12 11:25:43;;;;;;;;;;;;;;;23.06;62.70;101414.41;4992327;28;20098;-35
2022/09/12 11:28:11;;;;;;;;;;;;;;;23.12;61.19;101413.19;4992308;28;19917;-34
2022/09/12 11:30:45;;;;;;;;;;;;;;;23.19;64.48;101408.13;4992813;28;20362;-35
2022/09/12 11:33:11;;;;;;;;;;;;;;;23.31;66.04;101413.97;4992281;28;19914;-35
2022/09/12 11:35:49;;;;;;;;;;;;;;;23.40;64.83;101405.81;5004039;28;20324;-35
2022/09/12 11:38:29;;;;;;;;;;;;;;;23.48;64.43;101401.56;5035389;28;20388;-35
2022/09/12 11:41:00;;;;;;;;;;;;;;;23.48;61.97;101398.78;5051242;28;20012;-35
2022/09/12 11:43:43;;;;;;;;;;;;;;;23.48;65.07;101401.56;5051719;28;20285;-35
2022/09/12 11:46:09;;;;;;;;;;;;;;;23.47;62.05;101402.66;5051428;28;20360;-34
2022/09/12 11:48:51;;;;;;;;;;;;;;;23.50;63.14;101404.81;5051981;28;20055;-34
2022/09/12 11:51:22;;;;;;;;;;;;;;;23.52;60.32;101405.31;5051623;28;19913;-35
2022/09/12 11:53:56;;;;;;;;;;;;;;;23.58;62.52;101404.94;5051624;28;19940;-35
2022/09/12 11:56:22;;;;;;;;;;;;;;;23.61;61.44;101409.81;5053260;28;20011;-35
2022/09/12 11:58:54;;;;;;;;;;;;;;;23.59;59.52;101401.03;5092921;28;19958;-34
2022/09/12 12:01:23;;;;;;;;;;;;;;;23.62;62.69;101394.09;5093709;28;19947;-34
2022/09/12 12:03:48;;;;;;;;;;;;;;;23.69;62.38;101399.25;5093660;28;19951;-35
2022/09/12 12:06:20;;;;;;;;;;;;;;;23.76;62.82;101383.91;5093581;28;19943;-34
2022/09/12 12:08:45;;;;;;;;;;;;;;;23.76;61.58;101391.38;5094126;28;19916;-35
2022/09/12 12:11:12;;;;;;;;;;;;;;;23.78;61.60;101386.38;5093510;28;19919;-35
2022/09/12 12:14:00;;;;;;;;;;;;;;;23.81;62.37;101392.06;5093444;28;20301;-35
2022/09/12 12:16:27;;;;;;;;;;;;;;;23.83;60.97;101384.31;5011914;28;20445;-35
2022/09/12 12:18:57;;;;;;;;;;;;;;;23.85;58.95;101375.72;5011436;28;20337;-35
2022/09/12 12:21:25;;;;;;;;;;;;;;;23.93;62.13;101382.47;5011593;28;19918;-35
2022/09/12 12:24:08;;;;;;;;;;;;;;;23.97;59.72;101380.75;5011695;28;19919;-35
2022/09/12 12:26:42;;;;;;;;;;;;;;;24.05;58.92;101393.81;5011096;28;20443;-35
2022/09/12 12:29:27;;;;;;;;;;;;;;;24.09;58.59;101383.78;5011711;28;19913;-35
2022/09/12 12:31:58;;;;;;;;;;;;;;;24.15;58.85;101383.34;5001347;28;20308;-35
2022/09/12 12:34:28;;;;;;;;;;;;;;;24.17;55.54;101377.53;5011742;28;19993;-36
2022/09/12 12:36:53;;;;;;;;;;;;;;;24.20;57.90;101371.38;5011398;28;19914;-36
2022/09/12 12:39:31;;;;;;;;;;;;;;;24.20;58.56;101370.56;5011265;28;19920;-36
2022/09/12 12:41:56;;;;;;;;;;;;;;;24.28;58.43;101372.59;5011688;28;19936;-35
2022/09/12 12:44:40;;;;;;;;;;;;;;;24.28;58.04;101373.41;5011033;28;20373;-36
2022/09/12 12:47:17;;;;;;;;;;;;;;;24.32;58.59;101360.63;5011454;28;19913;-35